Time;durP1;ratioP1;P1;durP2;ratioP2;P2;SDS_P1;SDS_P2;PMS_P1;PMS_P2;Temp;Humidity;BMP_temperature;BMP_pressure;BME280_temperature;BME280_humidity;BME280_pressure;Samples;Min_cycle;Max_cycle;Signal;HPM_P1;HPM_P2
2021/01/14 00:02:02;;;;;;;6.63;4.70;;;4.20;99.90;;;;;;5034319;28;20463;-63
2021/01/14 00:04:28;;;;;;;5.47;4.20;;;4.20;99.90;;;;;;5025079;28;20413;-64
2021/01/14 00:06:55;;;;;;;5.33;4.47;;;4.20;99.90;;;;;;5025263;28;20421;-63
2021/01/14 00:09:21;;;;;;;6.47;4.83;;;4.20;99.90;;;;;;5031469;28;20242;-65
2021/01/14 00:11:46;;;;;;;5.60;4.43;;;4.20;99.90;;;;;;5049341;28;20417;-64
2021/01/14 00:14:12;;;;;;;5.60;4.53;;;4.20;99.90;;;;;;5044148;28;20179;-65
2021/01/14 00:16:38;;;;;;;6.70;4.90;;;4.20;99.90;;;;;;5044950;28;20179;-63
2021/01/14 00:19:05;;;;;;;5.43;4.43;;;4.20;99.90;;;;;;5045023;28;20176;-63
2021/01/14 00:21:31;;;;;;;5.37;4.83;;;4.20;99.90;;;;;;5038042;28;20171;-64
2021/01/14 00:23:56;;;;;;;5.60;4.63;;;4.20;99.90;;;;;;5046887;28;20420;-62
2021/01/14 00:26:22;;;;;;;6.63;4.60;;;4.20;99.90;;;;;;5049912;28;20207;-64
2021/01/14 00:28:47;;;;;;;6.17;4.50;;;4.20;99.90;;;;;;5048027;28;20665;-64
2021/01/14 00:31:13;;;;;;;6.63;5.00;;;4.20;99.90;;;;;;5051392;28;20181;-64
2021/01/14 00:33:39;;;;;;;4.87;4.20;;;4.10;99.90;;;;;;5050336;28;20202;-64
2021/01/14 00:36:05;;;;;;;6.27;4.43;;;4.10;99.90;;;;;;5051171;28;20629;-63
2021/01/14 00:38:30;;;;;;;5.10;4.47;;;4.10;99.90;;;;;;5050958;28;20560;-64
2021/01/14 00:40:56;;;;;;;4.83;3.77;;;4.10;99.90;;;;;;5049333;28;20410;-63
2021/01/14 00:43:21;;;;;;;5.73;4.27;;;4.10;99.90;;;;;;5050992;28;20233;-64
2021/01/14 00:45:48;;;;;;;5.20;4.37;;;4.10;99.90;;;;;;5050841;28;20179;-63
2021/01/14 00:48:13;;;;;;;5.57;3.83;;;4.00;99.90;;;;;;5050888;28;20171;-63
2021/01/14 00:50:39;;;;;;;4.63;4.07;;;4.00;99.90;;;;;;5050920;28;20904;-65
2021/01/14 00:53:05;;;;;;;6.03;4.10;;;5.70;99.90;;;;;;5050797;28;20595;-63
2021/01/14 00:55:30;;;;;;;6.87;4.70;;;3.90;99.90;;;;;;5050790;28;20649;-65
2021/01/14 00:57:56;;;;;;;6.00;4.53;;;4.00;99.90;;;;;;5050529;28;20202;-63
2021/01/14 01:00:22;;;;;;;6.00;4.27;;;4.00;99.90;;;;;;5050728;28;20179;-65
2021/01/14 01:02:50;;;;;;;6.63;4.30;;;4.00;99.90;;;;;;5050647;28;20206;-65
2021/01/14 01:05:17;;;;;;;5.57;4.43;;;4.00;99.90;;;;;;5050829;28;20425;-64
2021/01/14 01:07:55;;;;;;;5.27;4.50;;;3.90;99.90;;;;;;5050578;28;20422;-65
2021/01/14 01:10:21;;;;;;;6.13;4.23;;;3.90;99.90;;;;;;5050533;28;20441;-64
2021/01/14 01:12:54;;;;;;;4.70;3.90;;;3.90;99.90;;;;;;5050766;28;20495;-64
2021/01/14 01:15:20;;;;;;;5.40;4.23;;;3.80;99.90;;;;;;5050377;28;20637;-64
2021/01/14 01:17:45;;;;;;;6.33;4.63;;;3.80;99.90;;;;;;5050785;28;20426;-63
2021/01/14 01:20:12;;;;;;;5.03;4.40;;;3.80;99.90;;;;;;5050917;28;20190;-65
2021/01/14 01:22:37;;;;;;;6.07;4.53;;;3.80;99.90;;;;;;5050586;28;20550;-64
2021/01/14 01:25:03;;;;;;;5.97;4.13;;;3.80;99.90;;;;;;5050561;28;20421;-66
2021/01/14 01:27:29;;;;;;;5.53;4.93;;;3.90;99.90;;;;;;5051633;28;20182;-65
2021/01/14 01:29:55;;;;;;;6.07;4.27;;;3.80;99.90;;;;;;5054325;28;20425;-64
2021/01/14 01:32:20;;;;;;;5.17;4.43;;;3.80;99.90;;;;;;5036288;28;20183;-65
2021/01/14 01:34:46;;;;;;;6.37;4.50;;;3.80;99.90;;;;;;5054733;28;20214;-65
2021/01/14 01:37:11;;;;;;;4.53;3.73;;;3.80;99.90;;;;;;5054272;28;20542;-65
2021/01/14 01:39:37;;;;;;;5.97;4.30;;;3.80;99.90;;;;;;5053933;28;20179;-64
2021/01/14 01:42:04;;;;;;;4.40;3.63;;;3.70;99.90;;;;;;5054128;28;20222;-66
2021/01/14 01:44:30;;;;;;;5.57;4.20;;;3.70;99.90;;;;;;5054042;28;20186;-65
2021/01/14 01:47:01;;;;;;;5.13;4.20;;;3.70;99.90;;;;;;5054127;28;20516;-65
2021/01/14 01:49:27;;;;;;;5.30;4.13;;;3.80;99.90;;;;;;5053937;28;20425;-65
2021/01/14 01:51:52;;;;;;;5.17;4.40;;;3.70;99.90;;;;;;5053843;28;20516;-65
2021/01/14 01:54:20;;;;;;;4.17;3.77;;;3.80;99.90;;;;;;5054136;28;20507;-64
2021/01/14 01:56:46;;;;;;;4.70;3.80;;;3.70;99.90;;;;;;5053763;28;20261;-64
2021/01/14 01:59:13;;;;;;;4.67;3.77;;;3.70;99.90;;;;;;5054220;28;20520;-66
2021/01/14 02:01:39;;;;;;;4.53;3.97;;;3.70;99.90;;;;;;5053404;28;20421;-64
2021/01/14 02:04:06;;;;;;;5.97;4.07;;;3.80;99.90;;;;;;5053681;28;20766;-66
2021/01/14 02:06:58;;;;;;;6.80;4.33;;;3.70;99.90;;;;;;5053818;28;20194;-65
2021/01/14 02:09:25;;;;;;;5.10;3.93;;;3.70;99.90;;;;;;5035563;28;20931;-65
2021/01/14 02:12:05;;;;;;;7.73;4.10;;;3.70;99.90;;;;;;5053664;28;20472;-65
2021/01/14 02:14:34;;;;;;;5.20;3.97;;;3.70;99.90;;;;;;5053633;28;20504;-63
2021/01/14 02:16:59;;;;;;;4.93;3.37;;;3.80;99.90;;;;;;5053241;28;20436;-66
2021/01/14 02:19:44;;;;;;;3.63;3.13;;;3.80;99.90;;;;;;5053502;28;20414;-65
2021/01/14 02:22:21;;;;;;;4.37;3.50;;;3.80;99.90;;;;;;5053165;28;20527;-66
2021/01/14 02:25:11;;;;;;;5.70;3.27;;;3.80;99.90;;;;;;5053513;28;20427;-64
2021/01/14 02:27:46;;;;;;;3.33;3.00;;;3.80;99.90;;;;;;5053396;28;20888;-65
2021/01/14 02:30:13;;;;;;;5.10;3.23;;;3.80;99.90;;;;;;5053218;28;20516;-65
2021/01/14 02:32:42;;;;;;;2.90;2.60;;;3.80;99.90;;;;;;5053149;28;20418;-64
2021/01/14 02:35:21;;;;;;;3.47;2.90;;;3.80;99.90;;;;;;5051371;28;20544;-64
2021/01/14 02:37:46;;;;;;;4.47;3.30;;;4.70;99.90;;;;;;5052694;28;20506;-65
2021/01/14 02:40:12;;;;;;;4.27;2.93;;;3.80;99.90;;;;;;5052961;28;20536;-64
2021/01/14 02:42:38;;;;;;;3.77;2.80;;;3.90;99.90;;;;;;5052863;28;20207;-66
2021/01/14 02:45:04;;;;;;;3.20;2.77;;;3.90;99.90;;;;;;5053112;28;20179;-64
2021/01/14 02:47:30;;;;;;;4.20;2.73;;;3.80;99.90;;;;;;5052806;28;20967;-65
2021/01/14 02:50:02;;;;;;;3.00;2.47;;;3.80;99.90;;;;;;5052751;28;20497;-64
2021/01/14 02:52:29;;;;;;;3.10;2.80;;;3.80;99.90;;;;;;5052797;28;20429;-64
2021/01/14 02:54:58;;;;;;;3.17;2.57;;;3.80;99.90;;;;;;5052829;28;21011;-64
2021/01/14 02:57:26;;;;;;;3.90;2.83;;;3.70;99.90;;;;;;5053077;28;20436;-64
2021/01/14 02:59:55;;;;;;;3.23;2.60;;;3.70;99.90;;;;;;5052873;28;20517;-64
2021/01/14 03:02:21;;;;;;;5.83;3.07;;;3.70;99.90;;;;;;5052532;28;20465;-63
2021/01/14 03:04:53;;;;;;;2.73;2.40;;;3.60;99.90;;;;;;5052393;28;20804;-64
2021/01/14 03:07:19;;;;;;;6.03;2.90;;;3.60;99.90;;;;;;5032606;28;20176;-65
2021/01/14 03:09:44;;;;;;;3.70;2.77;;;3.60;99.90;;;;;;5032387;28;20488;-63
2021/01/14 03:12:10;;;;;;;3.03;2.43;;;3.60;99.90;;;;;;5032382;28;20566;-65
2021/01/14 03:14:35;;;;;;;7.07;3.03;;;3.50;99.90;;;;;;5032367;28;20226;-66
2021/01/14 03:17:01;;;;;;;4.70;3.13;;;3.50;99.90;;;;;;5032149;28;20184;-63
2021/01/14 03:19:26;;;;;;;5.00;3.23;;;3.60;99.90;;;;;;5032501;28;20531;-64
2021/01/14 03:21:58;;;;;;;4.00;3.00;;;3.60;99.90;;;;;;5032295;28;20199;-65
2021/01/14 03:24:24;;;;;;;6.17;2.80;;;3.50;99.90;;;;;;5032412;28;20266;-64
2021/01/14 03:26:49;;;;;;;4.30;3.20;;;3.40;99.90;;;;;;5031825;28;20494;-65
2021/01/14 03:29:15;;;;;;;4.67;2.90;;;3.40;99.90;;;;;;5032196;28;20234;-65
2021/01/14 03:31:40;;;;;;;3.63;2.87;;;3.50;99.90;;;;;;5031778;28;20693;-65
2021/01/14 03:34:06;;;;;;;3.77;2.67;;;3.40;99.90;;;;;;5031568;28;20176;-66
2021/01/14 03:36:32;;;;;;;3.17;2.43;;;3.40;99.90;;;;;;5031919;28;20211;-64
2021/01/14 03:38:58;;;;;;;5.27;3.10;;;3.40;99.90;;;;;;5043505;28;20170;-65
2021/01/14 03:41:24;;;;;;;4.17;2.60;;;3.40;99.90;;;;;;5051999;28;20414;-64
2021/01/14 03:43:49;;;;;;;2.90;2.30;;;3.30;99.90;;;;;;5051639;28;20970;-65
2021/01/14 03:46:16;;;;;;;3.67;2.33;;;3.20;99.90;;;;;;5051594;28;20206;-64
2021/01/14 03:48:44;;;;;;;4.07;2.43;;;3.30;99.90;;;;;;5051803;28;20241;-64
2021/01/14 03:51:13;;;;;;;3.27;2.50;;;3.20;99.90;;;;;;5049898;28;20425;-65
2021/01/14 03:53:39;;;;;;;5.30;2.90;;;3.30;99.90;;;;;;5051780;28;20887;-63
2021/01/14 03:56:04;;;;;;;4.37;3.17;;;3.30;99.90;;;;;;5051683;28;20525;-64
2021/01/14 03:58:30;;;;;;;4.00;2.77;;;3.30;99.90;;;;;;5051297;28;20186;-64
2021/01/14 04:00:56;;;;;;;4.50;2.60;;;3.30;99.90;;;;;;5051897;28;20194;-66
2021/01/14 04:03:21;;;;;;;5.30;3.20;;;3.30;99.90;;;;;;5051208;28;20249;-63
2021/01/14 04:05:49;;;;;;;5.57;3.13;;;3.30;99.90;;;;;;5051382;28;20179;-65
2021/01/14 04:08:14;;;;;;;5.03;3.37;;;3.30;99.90;;;;;;5051411;28;20187;-64
2021/01/14 04:10:40;;;;;;;5.47;3.67;;;3.30;99.90;;;;;;5033272;28;20429;-64
2021/01/14 04:13:06;;;;;;;9.10;4.30;;;3.30;99.90;;;;;;5051187;28;20233;-64
2021/01/14 04:15:31;;;;;;;8.97;3.93;;;3.30;99.90;;;;;;5050786;28;20191;-65
2021/01/14 04:17:57;;;;;;;5.93;4.03;;;3.30;99.90;;;;;;5051381;28;20182;-64
2021/01/14 04:20:22;;;;;;;6.53;3.40;;;3.30;99.90;;;;;;5051106;28;20751;-65
2021/01/14 04:22:50;;;;;;;7.23;3.80;;;3.20;99.90;;;;;;5050765;28;20225;-65
2021/01/14 04:25:16;;;;;;;7.20;3.80;;;3.20;99.90;;;;;;5051188;28;20179;-65
2021/01/14 04:27:41;;;;;;;5.53;4.10;;;3.20;99.90;;;;;;5050733;28;20417;-64
2021/01/14 04:30:07;;;;;;;7.60;4.30;;;3.20;99.90;;;;;;5051057;28;20609;-64
2021/01/14 04:32:33;;;;;;;8.50;4.20;;;3.20;99.90;;;;;;5050742;28;20537;-65
2021/01/14 04:34:59;;;;;;;4.30;3.37;;;3.20;99.90;;;;;;5050920;28;20559;-65
2021/01/14 04:37:24;;;;;;;5.90;4.03;;;3.10;99.90;;;;;;5050947;28;20174;-64
2021/01/14 04:39:50;;;;;;;5.13;3.90;;;3.20;99.90;;;;;;5050886;28;20201;-64
2021/01/14 04:42:18;;;;;;;6.67;3.70;;;3.20;99.90;;;;;;5050570;28;20199;-64
2021/01/14 04:44:44;;;;;;;6.10;4.10;;;3.10;99.90;;;;;;5051183;28;20183;-64
2021/01/14 04:47:15;;;;;;;7.13;4.47;;;3.10;99.90;;;;;;5050719;28;20971;-66
2021/01/14 04:49:42;;;;;;;9.47;4.77;;;3.00;99.90;;;;;;5050649;28;20269;-64
2021/01/14 04:52:16;;;;;;;6.13;4.20;;;3.00;99.90;;;;;;5050610;28;20808;-64
2021/01/14 04:54:43;;;;;;;9.33;4.33;;;3.00;99.90;;;;;;5049511;28;20418;-65
2021/01/14 04:57:20;;;;;;;7.27;4.33;;;3.10;99.90;;;;;;5050764;28;20508;-66
2021/01/14 04:59:59;;;;;;;5.73;3.87;;;3.10;99.90;;;;;;5049481;28;20891;-65
2021/01/14 05:02:26;;;;;;;5.37;3.90;;;3.10;99.90;;;;;;5053457;28;20444;-64
2021/01/14 05:05:03;;;;;;;7.03;4.17;;;3.10;99.90;;;;;;5054847;28;20758;-64
2021/01/14 05:07:32;;;;;;;6.30;3.80;;;3.00;99.90;;;;;;5054611;28;20759;-65
2021/01/14 05:10:04;;;;;;;5.50;4.07;;;3.00;99.90;;;;;;5054870;28;20421;-64
2021/01/14 05:12:34;;;;;;;5.37;3.87;;;3.00;99.90;;;;;;5054686;28;20475;-65
2021/01/14 05:15:01;;;;;;;5.50;4.00;;;3.00;99.90;;;;;;5054852;28;20425;-64
2021/01/14 05:17:29;;;;;;;6.73;3.60;;;3.10;99.90;;;;;;5054163;28;20781;-64
2021/01/14 05:19:56;;;;;;;5.57;3.47;;;3.10;99.90;;;;;;5054451;28;20418;-64
2021/01/14 05:22:25;;;;;;;3.93;3.20;;;3.10;99.90;;;;;;5054363;28;20464;-64
2021/01/14 05:25:06;;;;;;;5.20;3.60;;;3.00;99.90;;;;;;5054505;28;20439;-64
2021/01/14 05:27:32;;;;;;;5.37;3.40;;;3.00;99.90;;;;;;5054543;28;20548;-65
2021/01/14 05:30:02;;;;;;;7.30;4.00;;;3.00;99.90;;;;;;5054544;28;20896;-66
2021/01/14 05:32:36;;;;;;;6.27;3.70;;;2.90;99.90;;;;;;5053068;28;20445;-64
2021/01/14 05:35:05;;;;;;;6.67;3.87;;;2.90;99.90;;;;;;5054486;28;20491;-67
2021/01/14 05:37:36;;;;;;;6.20;3.80;;;2.90;99.90;;;;;;5054467;28;20409;-66
2021/01/14 05:40:04;;;;;;;4.43;3.43;;;2.80;99.90;;;;;;5054063;28;20571;-66
2021/01/14 05:42:30;;;;;;;4.10;3.37;;;2.80;99.90;;;;;;5054251;28;20460;-65
2021/01/14 05:44:55;;;;;;;4.97;3.60;;;2.70;99.90;;;;;;5053894;28;20923;-64
2021/01/14 05:47:23;;;;;;;6.10;3.23;;;2.80;99.90;;;;;;5054284;28;20710;-66
2021/01/14 05:50:03;;;;;;;5.47;3.10;;;2.80;99.90;;;;;;5053958;28;20644;-65
2021/01/14 05:52:31;;;;;;;6.77;4.43;;;2.80;99.90;;;;;;5054044;28;20413;-65
2021/01/14 05:55:04;;;;;;;5.37;4.07;;;2.80;99.90;;;;;;5053749;28;20806;-65
2021/01/14 05:57:35;;;;;;;6.57;3.27;;;2.80;99.90;;;;;;5053925;28;20453;-64
2021/01/14 06:00:08;;;;;;;4.70;3.43;;;2.70;99.90;;;;;;5053074;28;20421;-64
2021/01/14 06:02:33;;;;;;;4.33;3.40;;;2.70;99.90;;;;;;5053833;28;20452;-65
2021/01/14 06:04:59;;;;;;;6.77;4.37;;;2.70;99.90;;;;;;5053434;28;20440;-65
2021/01/14 06:07:38;;;;;;;8.17;4.83;;;2.60;99.90;;;;;;5053633;28;20179;-65
2021/01/14 06:10:05;;;;;;;12.30;5.93;;;2.70;99.90;;;;;;5053682;28;20846;-63
2021/01/14 06:12:31;;;;;;;7.03;4.53;;;2.70;99.90;;;;;;5053234;28;20418;-63
2021/01/14 06:14:56;;;;;;;6.33;4.13;;;2.70;99.90;;;;;;5053262;28;20787;-65
2021/01/14 06:17:33;;;;;;;6.00;4.20;;;2.80;99.90;;;;;;5053238;28;20178;-64
2021/01/14 06:20:09;;;;;;;6.73;4.30;;;2.80;99.90;;;;;;5053183;28;20181;-64
2021/01/14 06:22:36;;;;;;;5.83;3.97;;;2.70;99.90;;;;;;5053235;28;20754;-65
2021/01/14 06:25:04;;;;;;;3.13;2.83;;;2.70;99.90;;;;;;5035308;28;20468;-64
2021/01/14 06:27:31;;;;;;;3.87;2.97;;;2.70;99.90;;;;;;5052950;28;20406;-66
2021/01/14 06:30:05;;;;;;;5.40;3.00;;;2.80;99.90;;;;;;5052986;28;20516;-64
2021/01/14 06:32:33;;;;;;;5.03;3.47;;;2.80;99.90;;;;;;5053036;28;20426;-64
2021/01/14 06:35:00;;;;;;;3.53;3.23;;;2.90;99.90;;;;;;5051732;28;20493;-64
2021/01/14 06:37:26;;;;;;;3.50;3.10;;;2.90;99.90;;;;;;5052750;28;20420;-63
2021/01/14 06:39:54;;;;;;;4.73;3.97;;;2.90;99.90;;;;;;5051262;28;20425;-63
2021/01/14 06:42:24;;;;;;;6.77;4.80;;;3.00;99.90;;;;;;5034366;28;20454;-66
2021/01/14 06:44:52;;;;;;;4.40;3.97;;;2.90;99.90;;;;;;5042677;28;20464;-64
2021/01/14 06:47:31;;;;;;;6.87;4.60;;;2.80;99.90;;;;;;5032736;28;20422;-65
2021/01/14 06:50:14;;;;;;;4.77;3.77;;;2.80;99.90;;;;;;5049705;28;20449;-68
2021/01/14 06:53:02;;;;;;;6.37;4.13;;;2.90;99.90;;;;;;5046937;28;20410;-65
2021/01/14 06:55:36;;;;;;;5.30;3.73;;;2.90;99.90;;;;;;5032949;28;21031;-64
2021/01/14 06:58:02;;;;;;;4.77;4.10;;;2.90;99.90;;;;;;5040989;28;21006;-64
2021/01/14 07:00:30;;;;;;;4.20;3.60;;;3.00;99.90;;;;;;5052874;28;20426;-66
2021/01/14 07:03:19;;;;;;;5.87;4.37;;;3.10;99.90;;;;;;5049784;28;20450;-65
2021/01/14 07:05:53;;;;;;;6.73;4.60;;;3.00;99.90;;;;;;5045343;28;20772;-65
2021/01/14 07:08:41;;;;;;;5.97;4.53;;;3.10;99.90;;;;;;5036970;28;20451;-66
2021/01/14 07:11:16;;;;;;;6.63;4.40;;;3.00;99.90;;;;;;5048087;28;20493;-64
2021/01/14 07:13:47;;;;;;;7.23;4.30;;;2.90;99.90;;;;;;5045018;28;21030;-65
2021/01/14 07:16:17;;;;;;;8.67;6.00;;;2.90;99.90;;;;;;5033066;28;20703;-63
2021/01/14 07:18:45;;;;;;;7.37;5.67;;;2.80;99.90;;;;;;5040609;28;20407;-67
2021/01/14 07:21:33;;;;;;;6.53;5.20;;;2.70;99.90;;;;;;5048414;28;20405;-64
2021/01/14 07:24:18;;;;;;;11.93;5.30;;;2.80;99.90;;;;;;5049491;28;20453;-65
2021/01/14 07:27:05;;;;;;;11.97;6.27;;;2.80;99.90;;;;;;5029841;28;20419;-65
2021/01/14 07:29:31;;;;;;;10.17;6.77;;;2.80;99.90;;;;;;5049459;28;20437;-63
2021/01/14 07:31:59;;;;;;;8.40;5.90;;;2.70;99.90;;;;;;5033965;28;20931;-65
2021/01/14 07:34:34;;;;;;;7.20;5.87;;;2.60;99.90;;;;;;5050864;28;20183;-67
2021/01/14 07:37:01;;;;;;;8.43;7.40;;;2.70;99.90;;;;;;5031963;28;20406;-63
2021/01/14 07:39:57;;;;;;;8.60;6.13;;;2.70;99.90;;;;;;5031477;28;20414;-64
2021/01/14 07:42:26;;;;;;;8.87;5.67;;;2.90;99.90;;;;;;5031806;28;20450;-66
2021/01/14 07:45:14;;;;;;;6.73;5.27;;;2.90;99.90;;;;;;5031509;28;20421;-67
2021/01/14 07:47:40;;;;;;;7.73;6.03;;;2.90;99.90;;;;;;5031789;28;20407;-63
2021/01/14 07:50:22;;;;;;;10.47;6.73;;;2.90;99.90;;;;;;5031541;28;20517;-65
2021/01/14 07:52:50;;;;;;;11.27;6.50;;;2.90;99.90;;;;;;5030786;28;20473;-65
2021/01/14 07:55:34;;;;;;;10.97;7.00;;;2.80;99.90;;;;;;5031728;28;20498;-64
2021/01/14 07:58:24;;;;;;;9.37;6.27;;;2.90;99.90;;;;;;5050806;28;20449;-65
2021/01/14 08:01:09;;;;;;;6.83;5.07;;;3.00;99.90;;;;;;5051276;28;20509;-63
2021/01/14 08:03:42;;;;;;;10.17;5.37;;;2.90;99.90;;;;;;5051496;28;20461;-62
2021/01/14 08:06:30;;;;;;;6.97;5.40;;;2.90;99.90;;;;;;5051602;28;20567;-62
2021/01/14 08:08:58;;;;;;;10.70;5.70;;;2.80;99.90;;;;;;5051267;28;20417;-63
2021/01/14 08:11:27;;;;;;;8.97;6.50;;;2.80;99.90;;;;;;5050345;28;20452;-65
2021/01/14 08:14:18;;;;;;;10.17;6.90;;;2.80;99.90;;;;;;5051434;28;20543;-63
2021/01/14 08:16:50;;;;;;;12.07;7.23;;;2.70;99.90;;;;;;5051271;28;20761;-63
2021/01/14 08:19:19;;;;;;;12.50;8.43;;;2.70;99.90;;;;;;5051075;28;20851;-64
2021/01/14 08:22:10;;;;;;;8.47;7.00;;;2.80;99.90;;;;;;5050891;28;20413;-63
2021/01/14 08:24:51;;;;;;;9.63;6.83;;;2.80;99.90;;;;;;5051170;28;20421;-63
2021/01/14 08:27:36;;;;;;;12.80;6.47;;;2.80;99.90;;;;;;5050759;28;20410;-64
2021/01/14 08:30:20;;;;;;;10.00;6.57;;;2.90;99.90;;;;;;5050796;28;20421;-66
2021/01/14 08:33:09;;;;;;;13.23;6.97;;;2.90;99.90;;;;;;5050691;28;20430;-65
2021/01/14 08:35:41;;;;;;;10.27;6.40;;;2.90;99.90;;;;;;5041183;28;20616;-63
2021/01/14 08:38:12;;;;;;;9.10;7.03;;;2.90;99.90;;;;;;5031136;28;20785;-63
2021/01/14 08:40:39;;;;;;;11.50;7.50;;;2.90;99.90;;;;;;5030885;28;20414;-65
2021/01/14 08:43:07;;;;;;;9.87;7.13;;;3.00;99.90;;;;;;5030840;28;20469;-65
2021/01/14 08:45:35;;;;;;;11.97;7.50;;;2.90;99.90;;;;;;5030497;28;20414;-67
2021/01/14 08:48:03;;;;;;;9.33;6.80;;;2.80;99.90;;;;;;5050717;28;20413;-64
2021/01/14 08:50:37;;;;;;;11.33;6.63;;;2.80;99.90;;;;;;5050405;28;20961;-63
2021/01/14 08:53:06;;;;;;;11.23;7.80;;;2.80;99.90;;;;;;5050822;28;20425;-63
2021/01/14 08:55:32;;;;;;;13.87;7.43;;;2.90;99.90;;;;;;5050370;28;20417;-65
2021/01/14 08:57:58;;;;;;;15.50;9.23;;;2.90;99.90;;;;;;5050720;28;20429;-65
2021/01/14 09:00:25;;;;;;;13.70;8.27;;;2.90;99.90;;;;;;5050488;28;20197;-64
2021/01/14 09:02:51;;;;;;;11.50;7.47;;;2.90;99.90;;;;;;5049477;28;20202;-64
2021/01/14 09:05:17;;;;;;;11.97;7.40;;;2.90;99.90;;;;;;5050733;28;20422;-64
2021/01/14 09:08:04;;;;;;;10.97;7.50;;;2.90;99.90;;;;;;5050820;28;20918;-64
2021/01/14 09:10:45;;;;;;;9.37;6.10;;;2.90;99.90;;;;;;5050430;28;20186;-66
2021/01/14 09:13:33;;;;;;;8.10;5.87;;;2.90;99.90;;;;;;5050716;28;20460;-66
2021/01/14 09:16:08;;;;;;;11.33;7.17;;;2.90;99.90;;;;;;5049341;28;20487;-64
2021/01/14 09:18:41;;;;;;;8.77;6.23;;;2.80;99.90;;;;;;5050525;28;20495;-66
2021/01/14 09:21:08;;;;;;;9.50;6.53;;;2.70;99.90;;;;;;5050395;28;20487;-65
2021/01/14 09:23:36;;;;;;;9.30;5.93;;;2.80;99.90;;;;;;5050448;28;20803;-66
2021/01/14 09:26:20;;;;;;;9.87;5.60;;;2.80;99.90;;;;;;5050112;28;20957;-64
2021/01/14 09:28:51;;;;;;;12.13;6.43;;;2.80;99.90;;;;;;5050651;28;20911;-65
2021/01/14 09:31:19;;;;;;;10.17;6.30;;;2.70;99.90;;;;;;5050660;28;20425;-65
2021/01/14 09:33:47;;;;;;;7.70;5.67;;;2.70;99.90;;;;;;5050440;28;20418;-66
2021/01/14 09:36:22;;;;;;;9.23;5.07;;;2.70;99.90;;;;;;5050360;28;20449;-63
2021/01/14 09:39:01;;;;;;;8.90;5.80;;;2.60;99.90;;;;;;5050499;28;20433;-65
2021/01/14 09:41:29;;;;;;;7.70;5.57;;;2.80;99.90;;;;;;5050490;28;20504;-63
2021/01/14 09:43:57;;;;;;;7.73;5.07;;;2.90;99.90;;;;;;5050193;28;20457;-64
2021/01/14 09:46:25;;;;;;;8.30;5.20;;;3.00;99.90;;;;;;5050276;28;20418;-64
2021/01/14 09:48:58;;;;;;;9.43;5.93;;;2.90;99.90;;;;;;5051874;28;20417;-63
2021/01/14 09:51:23;;;;;;;10.33;5.07;;;2.90;99.90;;;;;;5054017;28;20828;-64
2021/01/14 09:53:49;;;;;;;8.07;5.07;;;2.80;99.90;;;;;;5053991;28;20447;-65
2021/01/14 09:56:24;;;;;;;7.40;5.40;;;2.80;99.90;;;;;;5053953;28;20175;-65
2021/01/14 09:58:55;;;;;;;11.73;6.63;;;2.90;99.90;;;;;;5053621;28;20413;-66
2021/01/14 10:01:26;;;;;;;6.40;4.90;;;2.90;99.90;;;;;;5053517;28;20421;-64
2021/01/14 10:04:02;;;;;;;8.57;5.43;;;3.10;99.90;;;;;;5052705;28;20491;-66
2021/01/14 10:06:30;;;;;;;7.87;5.57;;;3.10;99.90;;;;;;5053642;28;20424;-64
2021/01/14 10:08:56;;;;;;;7.90;5.70;;;3.00;99.90;;;;;;5053513;28;20907;-65
2021/01/14 10:11:25;;;;;;;8.87;5.37;;;3.00;99.90;;;;;;5053402;28;20422;-64
2021/01/14 10:13:52;;;;;;;8.63;4.57;;;3.10;99.90;;;;;;5053340;28;20428;-65
2021/01/14 10:16:21;;;;;;;6.97;4.27;;;3.00;99.90;;;;;;5053422;28;20414;-66
2021/01/14 10:18:47;;;;;;;6.30;4.33;;;3.00;99.90;;;;;;5053558;28;20414;-66
2021/01/14 10:21:16;;;;;;;13.57;5.87;;;3.20;99.90;;;;;;5053300;28;20432;-67
2021/01/14 10:23:42;;;;;;;7.73;4.73;;;3.30;99.90;;;;;;5053126;28;20210;-64
2021/01/14 10:26:08;;;;;;;7.90;5.07;;;3.30;99.90;;;;;;5053108;28;20413;-63
2021/01/14 10:28:46;;;;;;;9.73;5.03;;;3.30;99.90;;;;;;5053086;28;20178;-66
2021/01/14 10:31:30;;;;;;;8.87;6.33;;;3.20;99.90;;;;;;5053069;28;20177;-63
2021/01/14 10:33:55;;;;;;;7.83;6.10;;;3.30;99.90;;;;;;5052662;28;20428;-63
2021/01/14 10:36:21;;;;;;;7.43;5.27;;;3.40;99.90;;;;;;5052147;28;20800;-64
2021/01/14 10:38:50;;;;;;;7.33;5.50;;;3.30;99.90;;;;;;5052577;28;20230;-64
2021/01/14 10:41:22;;;;;;;7.90;5.27;;;3.30;99.90;;;;;;5053044;28;20171;-65
2021/01/14 10:43:48;;;;;;;8.87;5.47;;;3.40;99.90;;;;;;5052837;28;20461;-63
2021/01/14 10:46:23;;;;;;;8.13;5.53;;;3.40;99.90;;;;;;5052644;28;20421;-65
2021/01/14 10:48:49;;;;;;;7.37;5.40;;;3.50;99.90;;;;;;5053193;28;20167;-63
2021/01/14 10:51:32;;;;;;;9.73;5.83;;;3.50;99.90;;;;;;5052412;28;20424;-66
2021/01/14 10:53:58;;;;;;;10.77;5.67;;;3.50;99.90;;;;;;5052320;28;20190;-66
2021/01/14 10:56:24;;;;;;;8.90;6.00;;;3.50;99.90;;;;;;5052790;28;20418;-63
2021/01/14 10:59:02;;;;;;;9.60;5.90;;;3.50;99.90;;;;;;5052557;28;21228;-64
2021/01/14 11:01:28;;;;;;;8.57;5.67;;;3.50;99.90;;;;;;5052645;28;20427;-65
2021/01/14 11:04:04;;;;;;;6.67;5.77;;;3.50;99.90;;;;;;5052482;28;20445;-65
2021/01/14 11:06:32;;;;;;;6.30;4.43;;;3.60;99.90;;;;;;5052453;28;20441;-65
2021/01/14 11:09:06;;;;;;;7.27;5.60;;;3.50;99.90;;;;;;5052289;28;20429;-63
2021/01/14 11:11:33;;;;;;;9.03;5.50;;;3.50;99.90;;;;;;5052221;28;20483;-64
2021/01/14 11:13:58;;;;;;;7.43;5.17;;;3.40;99.90;;;;;;5052421;28;20430;-62
2021/01/14 11:16:26;;;;;;;10.50;6.20;;;3.40;99.90;;;;;;5051877;28;20532;-64
2021/01/14 11:18:56;;;;;;;11.10;6.63;;;3.40;99.90;;;;;;5052366;28;20629;-66
2021/01/14 11:21:29;;;;;;;10.40;5.70;;;3.40;99.90;;;;;;5052365;28;20426;-64
2021/01/14 11:23:55;;;;;;;9.80;6.27;;;3.40;99.90;;;;;;5052035;28;20457;-63
2021/01/14 11:26:22;;;;;;;10.30;6.10;;;3.40;99.90;;;;;;5052125;28;20454;-65
2021/01/14 11:28:48;;;;;;;9.93;6.40;;;3.40;99.90;;;;;;5051805;28;20803;-66
2021/01/14 11:31:16;;;;;;;9.23;6.90;;;3.30;99.90;;;;;;5051800;28;20517;-66
2021/01/14 11:33:42;;;;;;;12.23;6.03;;;3.40;99.90;;;;;;5051878;28;20514;-66
2021/01/14 11:36:12;;;;;;;9.23;6.07;;;3.40;99.90;;;;;;5050958;28;20455;-64
2021/01/14 11:38:40;;;;;;;8.50;6.17;;;3.50;99.90;;;;;;5051597;28;20418;-66
2021/01/14 11:41:05;;;;;;;9.50;5.93;;;3.50;99.90;;;;;;5052027;28;20803;-64
2021/01/14 11:43:32;;;;;;;9.33;6.27;;;3.50;99.90;;;;;;5051404;28;20511;-63
2021/01/14 11:45:58;;;;;;;9.47;5.60;;;3.50;99.90;;;;;;5051983;28;20270;-63
2021/01/14 11:48:24;;;;;;;9.77;5.63;;;3.50;99.90;;;;;;5051861;28;20502;-65
2021/01/14 11:50:49;;;;;;;8.17;5.60;;;3.40;99.90;;;;;;5051856;28;20524;-65
2021/01/14 11:53:15;;;;;;;13.20;6.00;;;3.30;99.90;;;;;;5051711;28;20633;-64
2021/01/14 11:55:41;;;;;;;8.20;5.80;;;3.30;99.90;;;;;;5051378;28;20175;-63
2021/01/14 11:58:06;;;;;;;8.07;5.00;;;3.20;99.90;;;;;;5051654;28;20266;-64
2021/01/14 12:00:32;;;;;;;8.03;4.93;;;3.10;99.90;;;;;;5051494;28;20183;-65
2021/01/14 12:02:58;;;;;;;6.90;4.90;;;2.90;99.90;;;;;;5051470;28;20206;-63
2021/01/14 12:05:23;;;;;;;8.27;4.97;;;2.80;99.90;;;;;;5051573;28;20198;-64
2021/01/14 12:07:56;;;;;;;8.13;5.40;;;2.80;99.90;;;;;;5049843;28;20210;-63
2021/01/14 12:10:21;;;;;;;8.47;5.27;;;2.80;99.90;;;;;;5050945;28;20179;-63
2021/01/14 12:12:47;;;;;;;8.40;5.33;;;2.70;99.90;;;;;;5051414;28;20413;-65
2021/01/14 12:15:13;;;;;;;6.57;5.53;;;2.80;99.90;;;;;;5051215;28;20638;-63
2021/01/14 12:17:39;;;;;;;8.07;5.40;;;2.90;99.90;;;;;;5051411;28;20187;-65
2021/01/14 12:20:05;;;;;;;7.83;5.57;;;2.90;99.90;;;;;;5051025;28;20206;-64
2021/01/14 12:22:34;;;;;;;8.43;5.80;;;2.90;99.90;;;;;;5051330;28;20256;-63
2021/01/14 12:24:59;;;;;;;8.80;6.37;;;2.90;99.90;;;;;;5051115;28;20510;-66
2021/01/14 12:27:25;;;;;;;11.03;6.20;;;3.00;99.90;;;;;;5051294;28;20510;-65
2021/01/14 12:29:50;;;;;;;9.90;6.97;;;3.10;99.90;;;;;;5051216;28;20179;-66
2021/01/14 12:32:16;;;;;;;11.67;7.33;;;3.20;99.90;;;;;;5051243;28;20179;-65
2021/01/14 12:34:42;;;;;;;12.47;8.03;;;3.20;99.90;;;;;;5033323;28;20187;-66
2021/01/14 12:37:08;;;;;;;10.87;6.70;;;3.20;99.90;;;;;;5050520;28;20531;-66
2021/01/14 12:39:33;;;;;;;10.00;5.73;;;3.20;99.90;;;;;;5050863;28;20633;-67
2021/01/14 12:41:59;;;;;;;9.50;5.30;;;3.10;99.90;;;;;;5050827;28;20249;-62
2021/01/14 12:44:25;;;;;;;8.33;4.90;;;3.10;99.90;;;;;;5051236;28;20178;-64
2021/01/14 12:46:50;;;;;;;7.73;4.63;;;3.10;99.90;;;;;;5051019;28;20179;-63
2021/01/14 12:49:18;;;;;;;7.10;5.10;;;3.10;99.90;;;;;;5051098;28;20698;-62
2021/01/14 12:51:45;;;;;;;5.00;4.30;;;3.00;99.90;;;;;;5050669;28;20173;-63
2021/01/14 12:54:10;;;;;;;7.57;4.27;;;2.90;99.90;;;;;;5050892;28;20446;-63
2021/01/14 12:56:37;;;;;;;7.83;4.63;;;3.00;99.90;;;;;;5050614;28;20471;-62
2021/01/14 12:59:05;;;;;;;6.73;4.43;;;2.90;99.90;;;;;;5051066;28;20634;-65
2021/01/14 13:01:33;;;;;;;8.47;4.47;;;2.90;99.90;;;;;;5050769;28;20455;-64
2021/01/14 13:04:00;;;;;;;8.13;5.00;;;3.00;99.90;;;;;;5051142;28;20457;-63
2021/01/14 13:06:31;;;;;;;7.50;4.80;;;3.10;99.90;;;;;;5051056;28;20484;-63
2021/01/14 13:08:58;;;;;;;7.33;4.50;;;3.10;99.90;;;;;;5050680;28;20418;-62